sensor_id;sensor_type;location;lat;lon;timestamp;P1;durP1;ratioP1;P2;durP2;ratioP2
25091;SDS011;13082;52.374;4.946;2023-03-20T00:02:22;5.10;;;2.67;;
25091;SDS011;13082;52.374;4.946;2023-03-20T00:04:48;11.10;;;3.53;;
25091;SDS011;13082;52.374;4.946;2023-03-20T00:07:15;3.07;;;2.30;;
25091;SDS011;13082;52.374;4.946;2023-03-20T00:09:40;5.30;;;2.87;;
25091;SDS011;13082;52.374;4.946;2023-03-20T00:12:06;6.77;;;2.87;;
25091;SDS011;13082;52.374;4.946;2023-03-20T00:14:38;4.63;;;2.70;;
25091;SDS011;13082;52.374;4.946;2023-03-20T00:17:08;5.23;;;2.50;;
25091;SDS011;13082;52.374;4.946;2023-03-20T00:19:44;8.27;;;3.03;;
25091;SDS011;13082;52.374;4.946;2023-03-20T00:22:10;6.47;;;2.50;;
25091;SDS011;13082;52.374;4.946;2023-03-20T00:24:36;3.53;;;2.50;;
25091;SDS011;13082;52.374;4.946;2023-03-20T00:27:02;7.67;;;2.30;;
25091;SDS011;13082;52.374;4.946;2023-03-20T00:29:30;2.80;;;2.37;;
25091;SDS011;13082;52.374;4.946;2023-03-20T00:31:58;6.27;;;3.00;;
25091;SDS011;13082;52.374;4.946;2023-03-20T00:34:25;6.90;;;2.97;;
25091;SDS011;13082;52.374;4.946;2023-03-20T00:36:52;10.17;;;3.17;;
25091;SDS011;13082;52.374;4.946;2023-03-20T00:39:19;6.33;;;3.00;;
25091;SDS011;13082;52.374;4.946;2023-03-20T00:44:20;8.13;;;2.87;;
25091;SDS011;13082;52.374;4.946;2023-03-20T00:46:47;7.33;;;3.30;;
25091;SDS011;13082;52.374;4.946;2023-03-20T00:49:15;5.87;;;3.03;;
25091;SDS011;13082;52.374;4.946;2023-03-20T00:51:41;5.73;;;2.90;;
25091;SDS011;13082;52.374;4.946;2023-03-20T00:54:12;7.43;;;3.23;;
25091;SDS011;13082;52.374;4.946;2023-03-20T00:56:43;6.17;;;3.33;;
25091;SDS011;13082;52.374;4.946;2023-03-20T00:59:16;7.87;;;4.13;;
25091;SDS011;13082;52.374;4.946;2023-03-20T01:01:45;7.00;;;4.30;;
25091;SDS011;13082;52.374;4.946;2023-03-20T01:04:14;9.57;;;4.93;;
25091;SDS011;13082;52.374;4.946;2023-03-20T01:06:42;9.70;;;4.50;;
25091;SDS011;13082;52.374;4.946;2023-03-20T01:09:08;12.70;;;5.27;;
25091;SDS011;13082;52.374;4.946;2023-03-20T01:11:35;13.40;;;5.13;;
25091;SDS011;13082;52.374;4.946;2023-03-20T01:14:01;9.63;;;4.90;;
25091;SDS011;13082;52.374;4.946;2023-03-20T01:16:27;9.53;;;5.67;;
25091;SDS011;13082;52.374;4.946;2023-03-20T01:18:53;9.17;;;5.47;;
25091;SDS011;13082;52.374;4.946;2023-03-20T01:21:20;8.67;;;5.00;;
25091;SDS011;13082;52.374;4.946;2023-03-20T01:23:46;8.07;;;5.20;;
25091;SDS011;13082;52.374;4.946;2023-03-20T01:29:00;10.53;;;5.07;;
25091;SDS011;13082;52.374;4.946;2023-03-20T01:31:25;8.97;;;6.17;;
25091;SDS011;13082;52.374;4.946;2023-03-20T01:33:51;10.73;;;5.67;;
25091;SDS011;13082;52.374;4.946;2023-03-20T01:36:18;7.43;;;5.03;;
25091;SDS011;13082;52.374;4.946;2023-03-20T01:38:46;10.37;;;5.23;;
25091;SDS011;13082;52.374;4.946;2023-03-20T01:41:22;11.47;;;5.93;;
25091;SDS011;13082;52.374;4.946;2023-03-20T01:43:49;11.73;;;6.27;;
25091;SDS011;13082;52.374;4.946;2023-03-20T01:51:16;11.77;;;5.67;;
25091;SDS011;13082;52.374;4.946;2023-03-20T01:53:46;13.50;;;6.47;;
25091;SDS011;13082;52.374;4.946;2023-03-20T01:56:57;11.67;;;6.10;;
25091;SDS011;13082;52.374;4.946;2023-03-20T01:59:28;11.17;;;6.10;;
25091;SDS011;13082;52.374;4.946;2023-03-20T02:02:00;13.87;;;5.77;;
25091;SDS011;13082;52.374;4.946;2023-03-20T02:04:31;9.03;;;5.33;;
25091;SDS011;13082;52.374;4.946;2023-03-20T02:07:00;12.53;;;5.93;;
25091;SDS011;13082;52.374;4.946;2023-03-20T02:09:26;12.97;;;6.30;;
25091;SDS011;13082;52.374;4.946;2023-03-20T02:11:52;13.57;;;6.10;;
25091;SDS011;13082;52.374;4.946;2023-03-20T02:14:19;10.60;;;5.13;;
25091;SDS011;13082;52.374;4.946;2023-03-20T02:16:47;9.60;;;5.47;;
25091;SDS011;13082;52.374;4.946;2023-03-20T02:19:19;8.67;;;5.20;;
25091;SDS011;13082;52.374;4.946;2023-03-20T02:27:50;12.60;;;5.47;;
25091;SDS011;13082;52.374;4.946;2023-03-20T02:38:57;11.37;;;4.80;;
25091;SDS011;13082;52.374;4.946;2023-03-20T02:44:20;9.23;;;5.83;;
25091;SDS011;13082;52.374;4.946;2023-03-20T02:49:23;11.30;;;5.57;;
25091;SDS011;13082;52.374;4.946;2023-03-20T03:01:08;15.73;;;6.97;;
25091;SDS011;13082;52.374;4.946;2023-03-20T03:03:49;16.93;;;7.20;;
25091;SDS011;13082;52.374;4.946;2023-03-20T03:06:24;11.53;;;6.40;;
25091;SDS011;13082;52.374;4.946;2023-03-20T03:09:16;9.93;;;5.93;;
25091;SDS011;13082;52.374;4.946;2023-03-20T03:11:44;14.63;;;7.33;;
25091;SDS011;13082;52.374;4.946;2023-03-20T03:14:17;15.33;;;7.50;;
25091;SDS011;13082;52.374;4.946;2023-03-20T03:16:48;18.00;;;7.77;;
25091;SDS011;13082;52.374;4.946;2023-03-20T03:19:17;19.33;;;8.70;;
25091;SDS011;13082;52.374;4.946;2023-03-20T03:21:47;14.83;;;7.03;;
25091;SDS011;13082;52.374;4.946;2023-03-20T03:24:30;11.67;;;7.20;;
25091;SDS011;13082;52.374;4.946;2023-03-20T03:26:57;11.03;;;6.90;;
25091;SDS011;13082;52.374;4.946;2023-03-20T03:29:26;19.60;;;7.90;;
25091;SDS011;13082;52.374;4.946;2023-03-20T03:31:55;14.73;;;7.17;;
25091;SDS011;13082;52.374;4.946;2023-03-20T03:34:21;21.30;;;7.80;;
25091;SDS011;13082;52.374;4.946;2023-03-20T03:39:40;14.80;;;7.13;;
25091;SDS011;13082;52.374;4.946;2023-03-20T03:44:49;11.60;;;6.63;;
25091;SDS011;13082;52.374;4.946;2023-03-20T03:47:39;14.43;;;7.50;;
25091;SDS011;13082;52.374;4.946;2023-03-20T03:50:17;16.43;;;7.43;;
25091;SDS011;13082;52.374;4.946;2023-03-20T03:52:47;14.63;;;7.97;;
25091;SDS011;13082;52.374;4.946;2023-03-20T03:55:20;24.63;;;8.73;;
25091;SDS011;13082;52.374;4.946;2023-03-20T03:57:49;17.43;;;8.37;;
25091;SDS011;13082;52.374;4.946;2023-03-20T04:00:22;17.53;;;8.37;;
25091;SDS011;13082;52.374;4.946;2023-03-20T04:02:50;16.37;;;8.87;;
25091;SDS011;13082;52.374;4.946;2023-03-20T04:05:19;17.53;;;8.47;;
25091;SDS011;13082;52.374;4.946;2023-03-20T04:07:46;15.33;;;8.47;;
25091;SDS011;13082;52.374;4.946;2023-03-20T04:10:16;25.03;;;9.40;;
25091;SDS011;13082;52.374;4.946;2023-03-20T04:12:42;19.53;;;9.30;;
25091;SDS011;13082;52.374;4.946;2023-03-20T04:15:09;15.50;;;8.30;;
25091;SDS011;13082;52.374;4.946;2023-03-20T04:17:36;16.80;;;8.90;;
25091;SDS011;13082;52.374;4.946;2023-03-20T04:20:03;15.67;;;8.90;;
25091;SDS011;13082;52.374;4.946;2023-03-20T04:22:29;17.63;;;8.53;;
25091;SDS011;13082;52.374;4.946;2023-03-20T04:24:55;16.30;;;9.27;;
25091;SDS011;13082;52.374;4.946;2023-03-20T04:27:20;17.97;;;8.87;;
25091;SDS011;13082;52.374;4.946;2023-03-20T04:29:46;17.03;;;9.57;;
25091;SDS011;13082;52.374;4.946;2023-03-20T04:32:12;15.03;;;8.97;;
25091;SDS011;13082;52.374;4.946;2023-03-20T04:34:38;20.67;;;9.53;;
25091;SDS011;13082;52.374;4.946;2023-03-20T04:37:03;18.63;;;9.10;;
25091;SDS011;13082;52.374;4.946;2023-03-20T04:39:32;19.17;;;8.57;;
25091;SDS011;13082;52.374;4.946;2023-03-20T04:41:59;17.60;;;10.07;;
25091;SDS011;13082;52.374;4.946;2023-03-20T04:44:25;25.27;;;8.33;;
25091;SDS011;13082;52.374;4.946;2023-03-20T04:46:50;15.87;;;8.77;;
25091;SDS011;13082;52.374;4.946;2023-03-20T04:49:16;17.10;;;9.33;;
25091;SDS011;13082;52.374;4.946;2023-03-20T04:51:41;19.47;;;10.17;;
25091;SDS011;13082;52.374;4.946;2023-03-20T04:54:07;17.33;;;9.23;;
25091;SDS011;13082;52.374;4.946;2023-03-20T04:56:33;15.83;;;9.00;;
25091;SDS011;13082;52.374;4.946;2023-03-20T04:58:58;18.67;;;10.53;;
25091;SDS011;13082;52.374;4.946;2023-03-20T05:01:24;15.43;;;9.97;;
25091;SDS011;13082;52.374;4.946;2023-03-20T05:03:49;17.50;;;9.63;;
25091;SDS011;13082;52.374;4.946;2023-03-20T05:06:16;16.77;;;8.90;;
25091;SDS011;13082;52.374;4.946;2023-03-20T05:08:41;17.30;;;9.37;;
25091;SDS011;13082;52.374;4.946;2023-03-20T05:11:07;15.43;;;9.67;;
25091;SDS011;13082;52.374;4.946;2023-03-20T05:13:32;14.33;;;9.17;;
25091;SDS011;13082;52.374;4.946;2023-03-20T05:15:58;19.57;;;9.13;;
25091;SDS011;13082;52.374;4.946;2023-03-20T05:18:25;18.23;;;10.07;;
25091;SDS011;13082;52.374;4.946;2023-03-20T05:20:50;13.07;;;7.83;;
25091;SDS011;13082;52.374;4.946;2023-03-20T05:23:16;14.43;;;7.77;;
25091;SDS011;13082;52.374;4.946;2023-03-20T05:25:41;18.87;;;9.20;;
25091;SDS011;13082;52.374;4.946;2023-03-20T05:28:08;16.13;;;8.77;;
25091;SDS011;13082;52.374;4.946;2023-03-20T05:30:33;14.17;;;10.23;;
25091;SDS011;13082;52.374;4.946;2023-03-20T05:32:59;17.00;;;8.80;;
25091;SDS011;13082;52.374;4.946;2023-03-20T05:35:25;18.70;;;8.77;;
25091;SDS011;13082;52.374;4.946;2023-03-20T05:37:50;18.17;;;8.90;;
25091;SDS011;13082;52.374;4.946;2023-03-20T05:40:16;21.10;;;9.00;;
25091;SDS011;13082;52.374;4.946;2023-03-20T05:42:43;19.40;;;9.63;;
25091;SDS011;13082;52.374;4.946;2023-03-20T05:45:09;14.43;;;8.60;;
25091;SDS011;13082;52.374;4.946;2023-03-20T05:47:35;17.37;;;8.63;;
25091;SDS011;13082;52.374;4.946;2023-03-20T05:50:01;15.43;;;7.43;;
25091;SDS011;13082;52.374;4.946;2023-03-20T05:52:28;14.80;;;8.50;;
25091;SDS011;13082;52.374;4.946;2023-03-20T05:54:53;17.30;;;8.80;;
25091;SDS011;13082;52.374;4.946;2023-03-20T05:57:19;14.90;;;9.60;;
25091;SDS011;13082;52.374;4.946;2023-03-20T05:59:45;15.23;;;9.10;;
25091;SDS011;13082;52.374;4.946;2023-03-20T06:02:11;14.27;;;8.80;;
25091;SDS011;13082;52.374;4.946;2023-03-20T06:04:36;16.40;;;9.10;;
25091;SDS011;13082;52.374;4.946;2023-03-20T06:07:02;21.50;;;10.77;;
25091;SDS011;13082;52.374;4.946;2023-03-20T06:09:28;18.00;;;9.57;;
25091;SDS011;13082;52.374;4.946;2023-03-20T06:11:54;16.17;;;10.03;;
25091;SDS011;13082;52.374;4.946;2023-03-20T06:14:20;16.83;;;9.57;;
25091;SDS011;13082;52.374;4.946;2023-03-20T06:16:46;14.17;;;9.53;;
25091;SDS011;13082;52.374;4.946;2023-03-20T06:19:11;12.83;;;9.10;;
25091;SDS011;13082;52.374;4.946;2023-03-20T06:21:37;13.93;;;8.60;;
25091;SDS011;13082;52.374;4.946;2023-03-20T06:24:03;17.13;;;8.93;;
25091;SDS011;13082;52.374;4.946;2023-03-20T06:26:29;13.83;;;8.47;;
25091;SDS011;13082;52.374;4.946;2023-03-20T06:28:55;15.10;;;9.30;;
25091;SDS011;13082;52.374;4.946;2023-03-20T06:31:20;17.90;;;9.93;;
25091;SDS011;13082;52.374;4.946;2023-03-20T06:33:46;14.83;;;8.93;;
25091;SDS011;13082;52.374;4.946;2023-03-20T06:36:12;15.30;;;9.30;;
25091;SDS011;13082;52.374;4.946;2023-03-20T06:38:38;13.43;;;8.43;;
25091;SDS011;13082;52.374;4.946;2023-03-20T06:41:04;17.57;;;9.47;;
25091;SDS011;13082;52.374;4.946;2023-03-20T06:43:30;17.13;;;8.40;;
25091;SDS011;13082;52.374;4.946;2023-03-20T06:45:56;14.00;;;8.27;;
25091;SDS011;13082;52.374;4.946;2023-03-20T06:48:22;13.87;;;8.57;;
25091;SDS011;13082;52.374;4.946;2023-03-20T06:50:48;10.50;;;7.97;;
25091;SDS011;13082;52.374;4.946;2023-03-20T06:53:14;20.63;;;8.70;;
25091;SDS011;13082;52.374;4.946;2023-03-20T06:55:41;17.17;;;8.67;;
25091;SDS011;13082;52.374;4.946;2023-03-20T06:58:07;15.13;;;8.50;;
25091;SDS011;13082;52.374;4.946;2023-03-20T07:00:32;15.57;;;7.97;;
25091;SDS011;13082;52.374;4.946;2023-03-20T07:02:58;23.43;;;8.63;;
25091;SDS011;13082;52.374;4.946;2023-03-20T07:05:24;14.83;;;8.50;;
25091;SDS011;13082;52.374;4.946;2023-03-20T07:07:50;16.43;;;8.87;;
25091;SDS011;13082;52.374;4.946;2023-03-20T07:10:16;18.10;;;8.27;;
25091;SDS011;13082;52.374;4.946;2023-03-20T07:12:41;19.50;;;8.80;;
25091;SDS011;13082;52.374;4.946;2023-03-20T07:15:08;12.20;;;7.87;;
25091;SDS011;13082;52.374;4.946;2023-03-20T07:17:35;13.83;;;8.17;;
25091;SDS011;13082;52.374;4.946;2023-03-20T07:20:01;15.00;;;7.97;;
25091;SDS011;13082;52.374;4.946;2023-03-20T07:22:28;13.37;;;8.27;;
25091;SDS011;13082;52.374;4.946;2023-03-20T07:24:55;16.17;;;8.37;;
25091;SDS011;13082;52.374;4.946;2023-03-20T07:27:21;16.97;;;7.43;;
25091;SDS011;13082;52.374;4.946;2023-03-20T07:29:47;11.77;;;7.37;;
25091;SDS011;13082;52.374;4.946;2023-03-20T07:32:13;12.70;;;7.60;;
25091;SDS011;13082;52.374;4.946;2023-03-20T07:34:39;23.30;;;8.30;;
25091;SDS011;13082;52.374;4.946;2023-03-20T07:37:05;16.77;;;7.83;;
25091;SDS011;13082;52.374;4.946;2023-03-20T07:39:31;11.30;;;6.80;;
25091;SDS011;13082;52.374;4.946;2023-03-20T07:41:56;18.87;;;8.17;;
25091;SDS011;13082;52.374;4.946;2023-03-20T07:44:22;12.57;;;7.13;;
25091;SDS011;13082;52.374;4.946;2023-03-20T07:46:48;12.10;;;7.30;;
25091;SDS011;13082;52.374;4.946;2023-03-20T07:49:14;11.63;;;6.73;;
25091;SDS011;13082;52.374;4.946;2023-03-20T07:51:44;9.43;;;6.67;;
25091;SDS011;13082;52.374;4.946;2023-03-20T07:54:11;18.63;;;8.00;;
25091;SDS011;13082;52.374;4.946;2023-03-20T07:56:36;13.40;;;7.60;;
25091;SDS011;13082;52.374;4.946;2023-03-20T07:59:02;13.63;;;6.93;;
25091;SDS011;13082;52.374;4.946;2023-03-20T08:01:28;13.17;;;7.33;;
25091;SDS011;13082;52.374;4.946;2023-03-20T08:03:54;12.43;;;7.40;;
25091;SDS011;13082;52.374;4.946;2023-03-20T08:06:20;12.77;;;6.87;;
25091;SDS011;13082;52.374;4.946;2023-03-20T08:08:45;14.27;;;7.17;;
25091;SDS011;13082;52.374;4.946;2023-03-20T08:11:11;12.63;;;7.83;;
25091;SDS011;13082;52.374;4.946;2023-03-20T08:13:37;12.43;;;6.57;;
25091;SDS011;13082;52.374;4.946;2023-03-20T08:16:03;12.10;;;6.33;;
25091;SDS011;13082;52.374;4.946;2023-03-20T08:18:29;10.07;;;6.83;;
25091;SDS011;13082;52.374;4.946;2023-03-20T08:20:54;14.73;;;6.67;;
25091;SDS011;13082;52.374;4.946;2023-03-20T08:23:20;15.37;;;7.10;;
25091;SDS011;13082;52.374;4.946;2023-03-20T08:25:49;12.83;;;6.67;;
25091;SDS011;13082;52.374;4.946;2023-03-20T08:28:15;11.77;;;6.30;;
25091;SDS011;13082;52.374;4.946;2023-03-20T08:30:41;14.33;;;6.50;;
25091;SDS011;13082;52.374;4.946;2023-03-20T08:33:07;13.53;;;7.03;;
25091;SDS011;13082;52.374;4.946;2023-03-20T08:35:33;20.53;;;7.23;;
25091;SDS011;13082;52.374;4.946;2023-03-20T08:37:58;12.47;;;6.50;;
25091;SDS011;13082;52.374;4.946;2023-03-20T08:40:24;12.40;;;6.83;;
25091;SDS011;13082;52.374;4.946;2023-03-20T08:42:50;14.90;;;7.07;;
25091;SDS011;13082;52.374;4.946;2023-03-20T08:45:15;10.23;;;6.37;;
25091;SDS011;13082;52.374;4.946;2023-03-20T08:47:41;12.03;;;6.10;;
25091;SDS011;13082;52.374;4.946;2023-03-20T08:50:07;9.53;;;5.63;;
25091;SDS011;13082;52.374;4.946;2023-03-20T08:52:33;11.53;;;6.03;;
25091;SDS011;13082;52.374;4.946;2023-03-20T08:54:59;15.90;;;5.63;;
25091;SDS011;13082;52.374;4.946;2023-03-20T08:57:25;13.07;;;5.90;;
25091;SDS011;13082;52.374;4.946;2023-03-20T08:59:51;10.37;;;5.67;;
25091;SDS011;13082;52.374;4.946;2023-03-20T09:02:16;10.13;;;5.30;;
25091;SDS011;13082;52.374;4.946;2023-03-20T09:04:42;15.57;;;6.77;;
25091;SDS011;13082;52.374;4.946;2023-03-20T09:07:08;17.23;;;5.93;;
25091;SDS011;13082;52.374;4.946;2023-03-20T09:09:33;19.00;;;5.40;;
25091;SDS011;13082;52.374;4.946;2023-03-20T09:11:59;13.87;;;6.13;;
25091;SDS011;13082;52.374;4.946;2023-03-20T09:14:25;12.20;;;5.27;;
25091;SDS011;13082;52.374;4.946;2023-03-20T09:16:52;8.13;;;4.77;;
25091;SDS011;13082;52.374;4.946;2023-03-20T09:19:18;10.93;;;4.80;;
25091;SDS011;13082;52.374;4.946;2023-03-20T09:21:44;13.67;;;6.17;;
25091;SDS011;13082;52.374;4.946;2023-03-20T09:24:10;8.97;;;4.80;;
25091;SDS011;13082;52.374;4.946;2023-03-20T09:26:36;11.30;;;5.27;;
25091;SDS011;13082;52.374;4.946;2023-03-20T09:29:02;14.67;;;5.47;;
25091;SDS011;13082;52.374;4.946;2023-03-20T09:31:29;10.80;;;4.43;;
25091;SDS011;13082;52.374;4.946;2023-03-20T09:33:54;13.50;;;5.17;;
25091;SDS011;13082;52.374;4.946;2023-03-20T09:36:20;9.43;;;4.90;;
25091;SDS011;13082;52.374;4.946;2023-03-20T09:38:46;13.47;;;4.57;;
25091;SDS011;13082;52.374;4.946;2023-03-20T09:41:14;12.60;;;4.97;;
25091;SDS011;13082;52.374;4.946;2023-03-20T09:49:33;9.27;;;4.80;;
25091;SDS011;13082;52.374;4.946;2023-03-20T09:55:03;8.13;;;4.70;;
25091;SDS011;13082;52.374;4.946;2023-03-20T09:57:40;16.07;;;5.30;;
25091;SDS011;13082;52.374;4.946;2023-03-20T10:00:13;10.77;;;5.80;;
25091;SDS011;13082;52.374;4.946;2023-03-20T10:02:52;10.80;;;5.97;;
25091;SDS011;13082;52.374;4.946;2023-03-20T10:05:20;9.83;;;4.87;;
25091;SDS011;13082;52.374;4.946;2023-03-20T10:08:09;15.60;;;5.53;;
25091;SDS011;13082;52.374;4.946;2023-03-20T10:18:48;13.67;;;6.33;;
25091;SDS011;13082;52.374;4.946;2023-03-20T10:21:23;13.60;;;6.83;;
25091;SDS011;13082;52.374;4.946;2023-03-20T10:24:02;12.17;;;7.00;;
25091;SDS011;13082;52.374;4.946;2023-03-20T10:26:30;11.47;;;7.43;;
25091;SDS011;13082;52.374;4.946;2023-03-20T10:29:00;12.93;;;7.90;;
25091;SDS011;13082;52.374;4.946;2023-03-20T10:42:15;15.90;;;7.43;;
25091;SDS011;13082;52.374;4.946;2023-03-20T10:44:54;16.40;;;8.67;;
25091;SDS011;13082;52.374;4.946;2023-03-20T10:47:25;20.33;;;9.00;;
25091;SDS011;13082;52.374;4.946;2023-03-20T10:49:56;20.10;;;10.60;;
25091;SDS011;13082;52.374;4.946;2023-03-20T10:52:27;11.23;;;9.03;;
25091;SDS011;13082;52.374;4.946;2023-03-20T10:55:00;18.50;;;9.33;;
25091;SDS011;13082;52.374;4.946;2023-03-20T10:57:34;17.57;;;10.67;;
25091;SDS011;13082;52.374;4.946;2023-03-20T11:00:03;14.67;;;10.77;;
25091;SDS011;13082;52.374;4.946;2023-03-20T11:02:34;18.67;;;10.37;;
25091;SDS011;13082;52.374;4.946;2023-03-20T11:05:34;16.57;;;10.50;;
25091;SDS011;13082;52.374;4.946;2023-03-20T11:08:02;19.50;;;11.33;;
25091;SDS011;13082;52.374;4.946;2023-03-20T11:10:35;33.53;;;11.93;;
25091;SDS011;13082;52.374;4.946;2023-03-20T11:13:15;18.13;;;10.60;;
25091;SDS011;13082;52.374;4.946;2023-03-20T11:15:52;21.00;;;11.47;;
25091;SDS011;13082;52.374;4.946;2023-03-20T11:18:19;17.47;;;11.57;;
25091;SDS011;13082;52.374;4.946;2023-03-20T11:20:49;18.03;;;12.20;;
25091;SDS011;13082;52.374;4.946;2023-03-20T11:23:24;18.17;;;11.57;;
25091;SDS011;13082;52.374;4.946;2023-03-20T11:25:55;19.43;;;12.27;;
25091;SDS011;13082;52.374;4.946;2023-03-20T11:28:55;21.37;;;11.93;;
25091;SDS011;13082;52.374;4.946;2023-03-20T11:31:36;16.97;;;11.27;;
25091;SDS011;13082;52.374;4.946;2023-03-20T11:36:39;22.67;;;13.27;;
25091;SDS011;13082;52.374;4.946;2023-03-20T11:39:24;24.03;;;13.37;;
25091;SDS011;13082;52.374;4.946;2023-03-20T11:41:53;21.47;;;12.77;;
25091;SDS011;13082;52.374;4.946;2023-03-20T11:44:30;23.90;;;13.40;;
25091;SDS011;13082;52.374;4.946;2023-03-20T11:49:23;17.87;;;11.93;;
25091;SDS011;13082;52.374;4.946;2023-03-20T11:51:51;24.27;;;13.27;;
25091;SDS011;13082;52.374;4.946;2023-03-20T11:54:20;19.93;;;12.70;;
25091;SDS011;13082;52.374;4.946;2023-03-20T11:56:52;18.20;;;12.20;;
25091;SDS011;13082;52.374;4.946;2023-03-20T11:59:18;18.90;;;11.33;;
25091;SDS011;13082;52.374;4.946;2023-03-20T12:01:48;19.53;;;12.30;;
25091;SDS011;13082;52.374;4.946;2023-03-20T12:06:44;21.03;;;12.97;;
25091;SDS011;13082;52.374;4.946;2023-03-20T12:14:44;18.77;;;11.07;;
25091;SDS011;13082;52.374;4.946;2023-03-20T12:20:12;19.73;;;11.77;;
25091;SDS011;13082;52.374;4.946;2023-03-20T12:22:50;19.17;;;12.40;;
25091;SDS011;13082;52.374;4.946;2023-03-20T12:25:58;18.73;;;12.33;;
25091;SDS011;13082;52.374;4.946;2023-03-20T12:33:44;17.80;;;12.30;;
25091;SDS011;13082;52.374;4.946;2023-03-20T12:36:35;21.87;;;11.63;;
25091;SDS011;13082;52.374;4.946;2023-03-20T12:39:09;16.30;;;12.23;;
25091;SDS011;13082;52.374;4.946;2023-03-20T13:18:09;15.60;;;9.27;;
25091;SDS011;13082;52.374;4.946;2023-03-20T13:20:49;13.10;;;10.23;;
25091;SDS011;13082;52.374;4.946;2023-03-20T13:28:48;12.93;;;9.90;;
25091;SDS011;13082;52.374;4.946;2023-03-20T13:36:59;13.23;;;9.03;;
25091;SDS011;13082;52.374;4.946;2023-03-20T13:39:58;12.50;;;8.60;;
25091;SDS011;13082;52.374;4.946;2023-03-20T13:42:30;11.33;;;8.57;;
25091;SDS011;13082;52.374;4.946;2023-03-20T13:45:04;12.27;;;8.73;;
25091;SDS011;13082;52.374;4.946;2023-03-20T13:47:38;15.40;;;9.57;;
25091;SDS011;13082;52.374;4.946;2023-03-20T13:50:25;13.33;;;8.33;;
25091;SDS011;13082;52.374;4.946;2023-03-20T13:52:58;13.10;;;9.30;;
25091;SDS011;13082;52.374;4.946;2023-03-20T14:01:20;11.77;;;8.17;;
25091;SDS011;13082;52.374;4.946;2023-03-20T14:03:56;6.90;;;6.13;;
25091;SDS011;13082;52.374;4.946;2023-03-20T14:08:52;11.17;;;7.47;;
25091;SDS011;13082;52.374;4.946;2023-03-20T14:14:07;9.37;;;7.17;;
25091;SDS011;13082;52.374;4.946;2023-03-20T14:16:42;8.93;;;6.90;;
25091;SDS011;13082;52.374;4.946;2023-03-20T14:19:16;11.87;;;7.43;;
25091;SDS011;13082;52.374;4.946;2023-03-20T14:21:48;9.60;;;7.53;;
25091;SDS011;13082;52.374;4.946;2023-03-20T14:24:17;11.07;;;7.53;;
25091;SDS011;13082;52.374;4.946;2023-03-20T14:26:47;8.70;;;6.97;;
25091;SDS011;13082;52.374;4.946;2023-03-20T14:31:40;9.37;;;7.00;;
25091;SDS011;13082;52.374;4.946;2023-03-20T14:34:21;7.30;;;6.57;;
25091;SDS011;13082;52.374;4.946;2023-03-20T14:39:42;8.30;;;7.00;;
25091;SDS011;13082;52.374;4.946;2023-03-20T14:42:18;8.13;;;6.60;;
25091;SDS011;13082;52.374;4.946;2023-03-20T14:53:23;7.77;;;6.17;;
25091;SDS011;13082;52.374;4.946;2023-03-20T15:07:03;7.57;;;6.47;;
25091;SDS011;13082;52.374;4.946;2023-03-20T15:09:37;6.83;;;5.93;;
25091;SDS011;13082;52.374;4.946;2023-03-20T15:12:08;7.63;;;5.80;;
25091;SDS011;13082;52.374;4.946;2023-03-20T15:14:57;7.17;;;5.67;;
25091;SDS011;13082;52.374;4.946;2023-03-20T15:17:37;7.83;;;6.30;;
25091;SDS011;13082;52.374;4.946;2023-03-20T15:22:45;9.57;;;6.00;;
25091;SDS011;13082;52.374;4.946;2023-03-20T15:25:22;7.10;;;5.60;;
25091;SDS011;13082;52.374;4.946;2023-03-20T15:27:52;6.90;;;5.90;;
25091;SDS011;13082;52.374;4.946;2023-03-20T15:30:19;8.20;;;5.83;;
25091;SDS011;13082;52.374;4.946;2023-03-20T15:32:51;8.80;;;4.80;;
25091;SDS011;13082;52.374;4.946;2023-03-20T15:35:20;7.40;;;5.37;;
25091;SDS011;13082;52.374;4.946;2023-03-20T15:37:50;5.80;;;5.10;;
25091;SDS011;13082;52.374;4.946;2023-03-20T15:40:24;6.70;;;5.87;;
25091;SDS011;13082;52.374;4.946;2023-03-20T15:42:55;5.87;;;4.97;;
25091;SDS011;13082;52.374;4.946;2023-03-20T15:45:24;6.07;;;5.10;;
25091;SDS011;13082;52.374;4.946;2023-03-20T15:48:04;7.17;;;5.50;;
25091;SDS011;13082;52.374;4.946;2023-03-20T15:50:32;7.90;;;5.07;;
25091;SDS011;13082;52.374;4.946;2023-03-20T15:53:00;5.87;;;4.27;;
25091;SDS011;13082;52.374;4.946;2023-03-20T15:55:27;5.03;;;4.53;;
25091;SDS011;13082;52.374;4.946;2023-03-20T15:57:56;4.43;;;3.70;;
25091;SDS011;13082;52.374;4.946;2023-03-20T16:00:26;5.13;;;3.73;;
25091;SDS011;13082;52.374;4.946;2023-03-20T16:02:58;6.60;;;4.07;;
25091;SDS011;13082;52.374;4.946;2023-03-20T16:05:26;7.93;;;4.40;;
25091;SDS011;13082;52.374;4.946;2023-03-20T16:07:54;5.63;;;4.20;;
25091;SDS011;13082;52.374;4.946;2023-03-20T16:10:31;7.87;;;4.13;;
25091;SDS011;13082;52.374;4.946;2023-03-20T16:13:00;6.63;;;4.53;;
25091;SDS011;13082;52.374;4.946;2023-03-20T16:15:27;7.90;;;4.57;;
25091;SDS011;13082;52.374;4.946;2023-03-20T16:17:59;7.13;;;4.77;;
25091;SDS011;13082;52.374;4.946;2023-03-20T16:20:29;17.33;;;12.93;;
25091;SDS011;13082;52.374;4.946;2023-03-20T16:23:04;9.03;;;5.60;;
25091;SDS011;13082;52.374;4.946;2023-03-20T16:25:32;7.47;;;5.40;;
25091;SDS011;13082;52.374;4.946;2023-03-20T16:28:02;6.83;;;5.73;;
25091;SDS011;13082;52.374;4.946;2023-03-20T16:30:31;7.40;;;6.37;;
25091;SDS011;13082;52.374;4.946;2023-03-20T16:33:03;8.23;;;5.87;;
25091;SDS011;13082;52.374;4.946;2023-03-20T16:35:36;14.47;;;6.23;;
25091;SDS011;13082;52.374;4.946;2023-03-20T16:41:29;11.97;;;7.17;;
25091;SDS011;13082;52.374;4.946;2023-03-20T16:43:57;13.40;;;7.97;;
25091;SDS011;13082;52.374;4.946;2023-03-20T16:46:25;13.00;;;7.10;;
25091;SDS011;13082;52.374;4.946;2023-03-20T16:48:55;13.83;;;7.53;;
25091;SDS011;13082;52.374;4.946;2023-03-20T16:51:25;14.67;;;7.97;;
25091;SDS011;13082;52.374;4.946;2023-03-20T16:53:56;11.00;;;7.80;;
25091;SDS011;13082;52.374;4.946;2023-03-20T16:58:51;16.67;;;8.77;;
25091;SDS011;13082;52.374;4.946;2023-03-20T17:01:18;15.97;;;7.63;;
25091;SDS011;13082;52.374;4.946;2023-03-20T17:08:52;11.00;;;7.33;;
25091;SDS011;13082;52.374;4.946;2023-03-20T17:11:33;12.50;;;7.67;;
25091;SDS011;13082;52.374;4.946;2023-03-20T17:14:00;11.20;;;7.10;;
25091;SDS011;13082;52.374;4.946;2023-03-20T17:16:28;11.93;;;7.63;;
25091;SDS011;13082;52.374;4.946;2023-03-20T17:19:13;13.63;;;8.63;;
25091;SDS011;13082;52.374;4.946;2023-03-20T17:21:42;14.80;;;8.03;;
25091;SDS011;13082;52.374;4.946;2023-03-20T17:24:08;14.13;;;7.73;;
25091;SDS011;13082;52.374;4.946;2023-03-20T17:26:35;18.60;;;8.33;;
25091;SDS011;13082;52.374;4.946;2023-03-20T17:29:02;12.10;;;8.33;;
25091;SDS011;13082;52.374;4.946;2023-03-20T17:31:28;14.47;;;7.97;;
25091;SDS011;13082;52.374;4.946;2023-03-20T17:33:53;16.40;;;8.53;;
25091;SDS011;13082;52.374;4.946;2023-03-20T17:36:26;14.23;;;8.70;;
25091;SDS011;13082;52.374;4.946;2023-03-20T17:38:54;11.73;;;7.57;;
25091;SDS011;13082;52.374;4.946;2023-03-20T17:41:20;12.73;;;8.30;;
25091;SDS011;13082;52.374;4.946;2023-03-20T17:43:47;17.73;;;9.83;;
25091;SDS011;13082;52.374;4.946;2023-03-20T17:46:20;11.77;;;8.40;;
25091;SDS011;13082;52.374;4.946;2023-03-20T17:48:49;17.00;;;7.67;;
25091;SDS011;13082;52.374;4.946;2023-03-20T17:51:19;16.20;;;8.03;;
25091;SDS011;13082;52.374;4.946;2023-03-20T17:53:44;24.53;;;8.83;;
25091;SDS011;13082;52.374;4.946;2023-03-20T17:56:11;17.87;;;9.33;;
25091;SDS011;13082;52.374;4.946;2023-03-20T17:58:38;14.87;;;9.00;;
25091;SDS011;13082;52.374;4.946;2023-03-20T18:01:05;19.47;;;10.23;;